Texas Enterprise — KSDF — position and weather

sailwx.info

Track history (hours):
 
Tides and Currents Weather Stations Pressure Air Temp Water Temp Dewpoint Dewpoint Depression Visibility Wind Speed Wind Dir Waves Ship Positions

Texas Enterprise

Owner: U.S. United Ocean Services, LLC, Tampa, FL. More information available from US FCC via Universal Licensing System and Coast Guard Vessel Documentation Center.

Last reported at 2017-Mar-25 18:17 UTC. Time now 2017-Mar-27 22:26 UTC.
Position N 27°38' W 082°37'.

Type: Cargo ship. MMSI: 366163000.

Date/timePositionNaut miles runAvg speedWind from/ knotsBaromVisibWave heightAir tempDewpointWater temp
2017-Mar-25 18:17N 27°38' W 082°37'1013.6
2017-Mar-25 17:34N 27°47' W 082°31'6 6.0
2017-Mar-25 16:33N 27°48' W 082°25'0 0.3
2017-Mar-25 15:32N 27°48' W 082°25'0 0.0
2017-Mar-25 14:32N 27°48' W 082°25'0 0.0
2017-Mar-25 13:32N 27°48' W 082°25'0 0.0
2017-Mar-25 12:32N 27°48' W 082°25'0 0.0
2017-Mar-25 11:32N 27°48' W 082°25'0 0.0
2017-Mar-25 10:32N 27°48' W 082°25'0 0.0
2017-Mar-25 09:32N 27°48' W 082°25'0 0.0
2017-Mar-25 08:32N 27°48' W 082°25'0 0.0
2017-Mar-25 07:32N 27°48' W 082°25'0 0.0
2017-Mar-25 06:32N 27°48' W 082°25'0 0.0
2017-Mar-25 05:32N 27°48' W 082°25'0 0.0
2017-Mar-25 04:32N 27°48' W 082°25'0 0.0
2017-Mar-25 03:32N 27°48' W 082°25'0 0.0
2017-Mar-25 02:32N 27°48' W 082°25'0 0.0
2017-Mar-25 01:32N 27°48' W 082°25'0 0.0
2017-Mar-25 00:32N 27°48' W 082°25'0 0.0
2017-Mar-24 23:32N 27°48' W 082°25'0 0.0
2017-Mar-24 22:32N 27°48' W 082°25'0 0.0
2017-Mar-24 21:32N 27°48' W 082°25'0 0.0
2017-Mar-24 20:32N 27°48' W 082°25'0 0.0
2017-Mar-24 19:32N 27°48' W 082°25'0 0.0
2017-Mar-24 18:32N 27°48' W 082°25'0 0.0
2017-Mar-24 17:32N 27°48' W 082°25'0 0.0
2017-Mar-24 16:32N 27°48' W 082°25'0 0.0
2017-Mar-24 15:32N 27°48' W 082°25'0 0.0
2017-Mar-24 14:32N 27°48' W 082°25'0 0.0
2017-Mar-24 13:32N 27°48' W 082°25'0 0.0
2017-Mar-24 12:32N 27°48' W 082°25'0 0.0
2017-Mar-24 11:32N 27°48' W 082°25'0 0.0
2017-Mar-24 10:32N 27°48' W 082°25'0 0.0
2017-Mar-24 09:32N 27°48' W 082°25'0 0.0
2017-Mar-24 08:32N 27°48' W 082°25'0 0.0
2017-Mar-24 07:29N 27°48' W 082°25'0 0.0
2017-Mar-24 06:32N 27°48' W 082°25'0 0.0
2017-Mar-24 05:32N 27°48' W 082°25'0 0.0
2017-Mar-24 04:32N 27°48' W 082°25'0 0.0
2017-Mar-24 03:32N 27°48' W 082°25'0 0.0
2017-Mar-24 02:32N 27°48' W 082°25'0 0.0
2017-Mar-24 01:32N 27°48' W 082°25'0 0.0
2017-Mar-24 00:32N 27°48' W 082°25'0 0.0
2017-Mar-23 23:32N 27°48' W 082°25'0 0.0
2017-Mar-23 22:32N 27°48' W 082°25'0 0.0
2017-Mar-23 21:32N 27°48' W 082°25'0 0.0
2017-Mar-23 20:32N 27°48' W 082°25'0 0.0
2017-Mar-23 19:32N 27°48' W 082°25'0 0.0
2017-Mar-23 18:32N 27°48' W 082°25'0 0.0
2017-Mar-23 17:32N 27°48' W 082°25'0 0.0
2017-Mar-23 16:32N 27°48' W 082°25'0 0.0
2017-Mar-23 15:32N 27°48' W 082°25'0 0.0
2017-Mar-23 14:32N 27°48' W 082°25'0 0.0
2017-Mar-23 13:32N 27°48' W 082°25'0 0.0
2017-Mar-23 12:32N 27°48' W 082°25'1 1.4
2017-Mar-23 11:33N 27°49' W 082°26'7 7.3
2017-Mar-23 10:33N 27°44' W 082°32'1310.8
2017-Mar-23 09:22N 27°36' W 082°44'11 1.0
2017-Mar-22 22:31N 27°37' W 082°57'0 0.0
2017-Mar-22 13:25N 27°37' W 082°57'0 0.0
2017-Mar-22 12:16N 27°37' W 082°57'0 0.0
2017-Mar-22 07:10N 27°37' W 082°57'0 0.0
2017-Mar-22 05:28N 27°37' W 082°57'0 0.0
2017-Mar-22 04:31N 27°37' W 082°57'0 0.0
2017-Mar-22 03:31N 27°37' W 082°57'0 0.0
2017-Mar-22 02:31N 27°37' W 082°57'0 0.0
2017-Mar-22 01:31N 27°37' W 082°57'0 0.0
2017-Mar-22 00:28N 27°37' W 082°57'0 0.0
2017-Mar-21 23:31N 27°37' W 082°57'0 0.1
2017-Mar-21 22:13N 27°37' W 082°57'1 2.3
2017-Mar-21 21:33N 27°36' W 082°58'384 9.8
2017-Mar-20 06:29N 29°37' W 089°54'  
2017-Mar-17 22:32N 27°41' W 082°34'1111.1
2017-Mar-17 21:34N 27°48' W 082°25'1 0.9
2017-Mar-17 20:34N 27°48' W 082°25'0 0.0
2017-Mar-17 19:33N 27°48' W 082°25'0 0.0
2017-Mar-17 18:26N 27°48' W 082°25'0 0.0
2017-Mar-17 17:32N 27°48' W 082°25'0 0.0
2017-Mar-17 16:32N 27°48' W 082°25'0 0.0
2017-Mar-17 15:33N 27°48' W 082°25'0 0.0
2017-Mar-17 14:32N 27°48' W 082°25'0 0.0
2017-Mar-17 13:32N 27°48' W 082°25'0 0.0
2017-Mar-17 12:32N 27°48' W 082°25'0 0.0
2017-Mar-17 11:32N 27°48' W 082°25'0 0.0
2017-Mar-17 10:32N 27°48' W 082°25'0 0.0
2017-Mar-17 09:32N 27°48' W 082°25'0 0.0
2017-Mar-17 08:32N 27°48' W 082°25'0 0.0
2017-Mar-17 07:32N 27°48' W 082°25'0 0.0
2017-Mar-17 06:32N 27°48' W 082°25'0 0.0
2017-Mar-17 05:32N 27°48' W 082°25'0 0.0
2017-Mar-17 04:32N 27°48' W 082°25'0 0.0
2017-Mar-17 03:32N 27°48' W 082°25'0 0.0
2017-Mar-17 02:32N 27°48' W 082°25'0 0.0
2017-Mar-17 01:32N 27°48' W 082°25'0 0.0
2017-Mar-17 00:32N 27°48' W 082°25'0 0.0
2017-Mar-16 23:32N 27°48' W 082°25'0 0.0
2017-Mar-16 22:32N 27°48' W 082°25'0 0.0
2017-Mar-16 21:26N 27°48' W 082°25'0 0.0
2017-Mar-16 20:23N 27°48' W 082°25'0 0.0
2017-Mar-16 19:32N 27°48' W 082°25'0 0.0
2017-Mar-16 18:29N 27°48' W 082°25'0 0.0
2017-Mar-16 17:32N 27°48' W 082°25'0 0.0
2017-Mar-16 16:32N 27°48' W 082°25'0 0.0
2017-Mar-16 15:32N 27°48' W 082°25'0 0.0
2017-Mar-16 14:29N 27°48' W 082°25'0 0.0
2017-Mar-16 13:32N 27°48' W 082°25'0 0.0
2017-Mar-16 12:32N 27°48' W 082°25'0 0.0
2017-Mar-16 11:32N 27°48' W 082°25'0 0.0
2017-Mar-16 10:32N 27°48' W 082°25'0 0.0
2017-Mar-16 09:32N 27°48' W 082°25'0 0.0
2017-Mar-16 08:32N 27°48' W 082°25'0 0.0
2017-Mar-16 07:32N 27°48' W 082°25'0 0.0
2017-Mar-16 06:32N 27°48' W 082°25'0 0.0
2017-Mar-16 05:32N 27°48' W 082°25'0 0.0
2017-Mar-16 04:32N 27°48' W 082°25'0 0.0
2017-Mar-16 03:29N 27°48' W 082°25'0 0.0
2017-Mar-16 02:32N 27°48' W 082°25'0 0.0
2017-Mar-16 01:32N 27°48' W 082°25'0 0.0
2017-Mar-16 00:32N 27°48' W 082°25'0 0.0
2017-Mar-15 23:32N 27°48' W 082°25'0 0.0
2017-Mar-15 22:32N 27°48' W 082°25'0 0.0
2017-Mar-15 21:32N 27°48' W 082°25'0 0.0
2017-Mar-15 20:32N 27°48' W 082°25'0 0.0
2017-Mar-15 19:32N 27°48' W 082°25'0 0.0
2017-Mar-15 18:32N 27°48' W 082°25'  
Track history (hours):
 
Tides and Currents Weather Stations Pressure Air Temp Water Temp Dewpoint Dewpoint Depression Visibility Wind Speed Wind Dir Waves Ship Positions

Texas Enterprise

Owner: U.S. United Ocean Services, LLC, Tampa, FL. More information available from US FCC via Universal Licensing System and Coast Guard Vessel Documentation Center.

Last reported at 2017-Mar-25 18:17 UTC. Time now 2017-Mar-27 22:26 UTC.
Position N 27°38' W 082°37'.

Type: Cargo ship. MMSI: 366163000.

Date/timePositionNaut miles runAvg speedWind from/ knotsBaromVisibWave heightAir tempDewpointWater temp
2017-Mar-25 18:17N 27°38' W 082°37'1013.6
2017-Mar-25 17:34N 27°47' W 082°31'6 6.0
2017-Mar-25 16:33N 27°48' W 082°25'0 0.3
2017-Mar-25 15:32N 27°48' W 082°25'0 0.0
2017-Mar-25 14:32N 27°48' W 082°25'0 0.0
2017-Mar-25 13:32N 27°48' W 082°25'0 0.0
2017-Mar-25 12:32N 27°48' W 082°25'0 0.0
2017-Mar-25 11:32N 27°48' W 082°25'0 0.0
2017-Mar-25 10:32N 27°48' W 082°25'0 0.0
2017-Mar-25 09:32N 27°48' W 082°25'0 0.0
2017-Mar-25 08:32N 27°48' W 082°25'0 0.0
2017-Mar-25 07:32N 27°48' W 082°25'0 0.0
2017-Mar-25 06:32N 27°48' W 082°25'0 0.0
2017-Mar-25 05:32N 27°48' W 082°25'0 0.0
2017-Mar-25 04:32N 27°48' W 082°25'0 0.0
2017-Mar-25 03:32N 27°48' W 082°25'0 0.0
2017-Mar-25 02:32N 27°48' W 082°25'0 0.0
2017-Mar-25 01:32N 27°48' W 082°25'0 0.0
2017-Mar-25 00:32N 27°48' W 082°25'0 0.0
2017-Mar-24 23:32N 27°48' W 082°25'0 0.0
2017-Mar-24 22:32N 27°48' W 082°25'0 0.0
2017-Mar-24 21:32N 27°48' W 082°25'0 0.0
2017-Mar-24 20:32N 27°48' W 082°25'0 0.0
2017-Mar-24 19:32N 27°48' W 082°25'0 0.0
2017-Mar-24 18:32N 27°48' W 082°25'0 0.0
2017-Mar-24 17:32N 27°48' W 082°25'0 0.0
2017-Mar-24 16:32N 27°48' W 082°25'0 0.0
2017-Mar-24 15:32N 27°48' W 082°25'0 0.0
2017-Mar-24 14:32N 27°48' W 082°25'0 0.0
2017-Mar-24 13:32N 27°48' W 082°25'0 0.0
2017-Mar-24 12:32N 27°48' W 082°25'0 0.0
2017-Mar-24 11:32N 27°48' W 082°25'0 0.0
2017-Mar-24 10:32N 27°48' W 082°25'0 0.0
2017-Mar-24 09:32N 27°48' W 082°25'0 0.0
2017-Mar-24 08:32N 27°48' W 082°25'0 0.0
2017-Mar-24 07:29N 27°48' W 082°25'0 0.0
2017-Mar-24 06:32N 27°48' W 082°25'0 0.0
2017-Mar-24 05:32N 27°48' W 082°25'0 0.0
2017-Mar-24 04:32N 27°48' W 082°25'0 0.0
2017-Mar-24 03:32N 27°48' W 082°25'0 0.0
2017-Mar-24 02:32N 27°48' W 082°25'0 0.0
2017-Mar-24 01:32N 27°48' W 082°25'0 0.0
2017-Mar-24 00:32N 27°48' W 082°25'0 0.0
2017-Mar-23 23:32N 27°48' W 082°25'0 0.0
2017-Mar-23 22:32N 27°48' W 082°25'0 0.0
2017-Mar-23 21:32N 27°48' W 082°25'0 0.0
2017-Mar-23 20:32N 27°48' W 082°25'0 0.0
2017-Mar-23 19:32N 27°48' W 082°25'0 0.0
2017-Mar-23 18:32N 27°48' W 082°25'0 0.0
2017-Mar-23 17:32N 27°48' W 082°25'0 0.0
2017-Mar-23 16:32N 27°48' W 082°25'0 0.0
2017-Mar-23 15:32N 27°48' W 082°25'0 0.0
2017-Mar-23 14:32N 27°48' W 082°25'0 0.0
2017-Mar-23 13:32N 27°48' W 082°25'0 0.0
2017-Mar-23 12:32N 27°48' W 082°25'1 1.4
2017-Mar-23 11:33N 27°49' W 082°26'7 7.3
2017-Mar-23 10:33N 27°44' W 082°32'1310.8
2017-Mar-23 09:22N 27°36' W 082°44'11 1.0
2017-Mar-22 22:31N 27°37' W 082°57'0 0.0
2017-Mar-22 13:25N 27°37' W 082°57'0 0.0
2017-Mar-22 12:16N 27°37' W 082°57'0 0.0
2017-Mar-22 07:10N 27°37' W 082°57'0 0.0
2017-Mar-22 05:28N 27°37' W 082°57'0 0.0
2017-Mar-22 04:31N 27°37' W 082°57'0 0.0
2017-Mar-22 03:31N 27°37' W 082°57'0 0.0
2017-Mar-22 02:31N 27°37' W 082°57'0 0.0
2017-Mar-22 01:31N 27°37' W 082°57'0 0.0
2017-Mar-22 00:28N 27°37' W 082°57'0 0.0
2017-Mar-21 23:31N 27°37' W 082°57'0 0.1
2017-Mar-21 22:13N 27°37' W 082°57'1 2.3
2017-Mar-21 21:33N 27°36' W 082°58'384 9.8
2017-Mar-20 06:29N 29°37' W 089°54'  
2017-Mar-17 22:32N 27°41' W 082°34'1111.1
2017-Mar-17 21:34N 27°48' W 082°25'1 0.9
2017-Mar-17 20:34N 27°48' W 082°25'0 0.0
2017-Mar-17 19:33N 27°48' W 082°25'0 0.0
2017-Mar-17 18:26N 27°48' W 082°25'0 0.0
2017-Mar-17 17:32N 27°48' W 082°25'0 0.0
2017-Mar-17 16:32N 27°48' W 082°25'0 0.0
2017-Mar-17 15:33N 27°48' W 082°25'0 0.0
2017-Mar-17 14:32N 27°48' W 082°25'0 0.0
2017-Mar-17 13:32N 27°48' W 082°25'0 0.0
2017-Mar-17 12:32N 27°48' W 082°25'0 0.0
2017-Mar-17 11:32N 27°48' W 082°25'0 0.0
2017-Mar-17 10:32N 27°48' W 082°25'0 0.0
2017-Mar-17 09:32N 27°48' W 082°25'0 0.0
2017-Mar-17 08:32N 27°48' W 082°25'0 0.0
2017-Mar-17 07:32N 27°48' W 082°25'0 0.0
2017-Mar-17 06:32N 27°48' W 082°25'0 0.0
2017-Mar-17 05:32N 27°48' W 082°25'0 0.0
2017-Mar-17 04:32N 27°48' W 082°25'0 0.0
2017-Mar-17 03:32N 27°48' W 082°25'0 0.0
2017-Mar-17 02:32N 27°48' W 082°25'0 0.0
2017-Mar-17 01:32N 27°48' W 082°25'0 0.0
2017-Mar-17 00:32N 27°48' W 082°25'0 0.0
2017-Mar-16 23:32N 27°48' W 082°25'0 0.0
2017-Mar-16 22:32N 27°48' W 082°25'0 0.0
2017-Mar-16 21:26N 27°48' W 082°25'0 0.0
2017-Mar-16 20:23N 27°48' W 082°25'0 0.0
2017-Mar-16 19:32N 27°48' W 082°25'0 0.0
2017-Mar-16 18:29N 27°48' W 082°25'0 0.0
2017-Mar-16 17:32N 27°48' W 082°25'0 0.0
2017-Mar-16 16:32N 27°48' W 082°25'0 0.0
2017-Mar-16 15:32N 27°48' W 082°25'0 0.0
2017-Mar-16 14:29N 27°48' W 082°25'0 0.0
2017-Mar-16 13:32N 27°48' W 082°25'0 0.0
2017-Mar-16 12:32N 27°48' W 082°25'0 0.0
2017-Mar-16 11:32N 27°48' W 082°25'0 0.0
2017-Mar-16 10:32N 27°48' W 082°25'0 0.0
2017-Mar-16 09:32N 27°48' W 082°25'0 0.0
2017-Mar-16 08:32N 27°48' W 082°25'0 0.0
2017-Mar-16 07:32N 27°48' W 082°25'0 0.0
2017-Mar-16 06:32N 27°48' W 082°25'0 0.0
2017-Mar-16 05:32N 27°48' W 082°25'0 0.0
2017-Mar-16 04:32N 27°48' W 082°25'0 0.0
2017-Mar-16 03:29N 27°48' W 082°25'0 0.0
2017-Mar-16 02:32N 27°48' W 082°25'0 0.0
2017-Mar-16 01:32N 27°48' W 082°25'0 0.0
2017-Mar-16 00:32N 27°48' W 082°25'0 0.0
2017-Mar-15 23:32N 27°48' W 082°25'0 0.0
2017-Mar-15 22:32N 27°48' W 082°25'0 0.0
2017-Mar-15 21:32N 27°48' W 082°25'0 0.0
2017-Mar-15 20:32N 27°48' W 082°25'0 0.0
2017-Mar-15 19:32N 27°48' W 082°25'0 0.0
2017-Mar-15 18:32N 27°48' W 082°25'  

Dump ship's entire track history